createdAt,value
2022-12-15T00:00:03.691Z,59.6
2022-12-15T00:02:03.790Z,59.7
2022-12-15T00:04:06.265Z,59.7
2022-12-15T00:06:03.807Z,59.8
2022-12-15T00:08:03.669Z,59.8
2022-12-15T00:10:13.977Z,59.7
2022-12-15T00:12:06.417Z,59.9
2022-12-15T00:14:03.793Z,59.9
2022-12-15T00:16:05.302Z,60
2022-12-15T00:18:03.814Z,60
2022-12-15T00:20:04.933Z,59.9
2022-12-15T00:22:03.748Z,59.9
2022-12-15T00:24:05.036Z,59.9
2022-12-15T00:26:03.690Z,59.9
2022-12-15T00:28:03.708Z,60
2022-12-15T00:30:03.750Z,59.8
2022-12-15T00:32:21.587Z,60
2022-12-15T00:34:03.670Z,60.1
2022-12-15T00:36:08.140Z,60.2
2022-12-15T00:38:09.412Z,60.2
2022-12-15T00:40:03.727Z,60.1
2022-12-15T00:42:03.966Z,60.2
2022-12-15T00:44:04.886Z,60.2
2022-12-15T00:46:03.729Z,60.2
2022-12-15T00:48:05.039Z,60.3
2022-12-15T00:50:04.689Z,60.2
2022-12-15T00:52:03.639Z,60.2
2022-12-15T00:54:05.026Z,60.2
2022-12-15T00:56:03.635Z,60.3
2022-12-15T00:58:03.748Z,60.3
2022-12-15T01:00:03.754Z,60.1
2022-12-15T01:02:03.774Z,60.2
2022-12-15T01:04:03.958Z,60.2
2022-12-15T01:06:03.682Z,60.2
2022-12-15T01:08:03.722Z,60.2
2022-12-15T01:10:03.683Z,60.2
2022-12-15T01:12:03.708Z,60.3
2022-12-15T01:14:03.647Z,60.3
2022-12-15T01:16:03.758Z,60.3
2022-12-15T01:18:03.793Z,60.4
2022-12-15T01:20:03.594Z,60.4
2022-12-15T01:22:03.569Z,60.5
2022-12-15T01:24:05.294Z,60.5
2022-12-15T01:26:03.603Z,60.6
2022-12-15T01:28:07.826Z,60.6
2022-12-15T01:30:03.719Z,60.6
2022-12-15T01:32:03.545Z,60.6
2022-12-15T01:34:03.524Z,60.6
2022-12-15T01:36:03.770Z,60.6
2022-12-15T01:38:03.578Z,60.6
2022-12-15T01:40:03.586Z,60.5
2022-12-15T01:42:03.619Z,60.6
2022-12-15T01:44:03.568Z,60.7
2022-12-15T01:46:03.540Z,60.7
2022-12-15T01:48:05.312Z,60.7
2022-12-15T01:50:03.553Z,60.7
2022-12-15T01:52:03.596Z,60.8
2022-12-15T01:54:03.597Z,60.8
2022-12-15T01:56:03.518Z,60.8
2022-12-15T01:58:03.532Z,60.9
2022-12-15T02:00:03.558Z,60.8
2022-12-15T02:02:03.587Z,60.8
2022-12-15T02:04:03.538Z,60.8
2022-12-15T02:06:03.509Z,60.8
2022-12-15T02:08:03.510Z,60.8
2022-12-15T02:10:03.520Z,60.7
2022-12-15T02:12:05.774Z,60.7
2022-12-15T02:14:03.528Z,60.8
2022-12-15T02:16:03.658Z,60.8
2022-12-15T02:18:03.604Z,60.8
2022-12-15T02:19:50.724Z,60.8
2022-12-15T02:20:03.708Z,60.7
2022-12-15T02:22:04.709Z,60.8
2022-12-15T02:24:03.540Z,60.7
2022-12-15T02:26:03.575Z,60.8
2022-12-15T02:28:03.552Z,60.8
2022-12-15T02:30:05.509Z,60.7
2022-12-15T02:32:03.808Z,60.8
2022-12-15T02:34:04.854Z,60.8
2022-12-15T02:36:03.529Z,60.8
2022-12-15T02:38:04.573Z,60.9
2022-12-15T02:40:07.973Z,60.8
2022-12-15T02:42:06.508Z,60.9
2022-12-15T02:44:03.492Z,60.9
2022-12-15T02:46:03.585Z,60.9
2022-12-15T02:48:03.501Z,60.9
2022-12-15T02:50:03.524Z,60.7
2022-12-15T02:52:03.452Z,60.8
2022-12-15T02:54:03.520Z,60.9
2022-12-15T02:56:03.482Z,60.9
2022-12-15T02:58:03.479Z,61
2022-12-15T03:00:03.467Z,60.9
2022-12-15T03:02:03.677Z,60.9
2022-12-15T03:04:03.442Z,61
2022-12-15T03:06:03.547Z,61
2022-12-15T03:08:03.417Z,61
2022-12-15T03:10:03.468Z,60.9
2022-12-15T03:12:03.549Z,60.9
2022-12-15T03:14:03.413Z,60.9
2022-12-15T03:16:03.539Z,60.9
2022-12-15T03:18:03.518Z,60.9
2022-12-15T03:20:03.547Z,60.8
2022-12-15T03:22:04.732Z,60.9
2022-12-15T03:24:03.656Z,60.9
2022-12-15T03:26:35.707Z,61
2022-12-15T03:28:04.955Z,61.1
2022-12-15T03:30:05.530Z,61
2022-12-15T03:32:03.622Z,61.1
2022-12-15T03:34:03.415Z,61.1
2022-12-15T03:36:03.497Z,61.2
2022-12-15T03:38:03.390Z,61.2
2022-12-15T03:40:03.438Z,61
2022-12-15T03:42:04.750Z,61.1
2022-12-15T03:44:03.426Z,61.1
2022-12-15T03:46:03.522Z,61.1
2022-12-15T03:48:05.206Z,61.1
2022-12-15T03:50:03.387Z,61
2022-12-15T03:52:04.483Z,61
2022-12-15T03:54:04.526Z,61
2022-12-15T03:56:30.492Z,61
2022-12-15T03:58:07.721Z,61
2022-12-15T04:00:04.774Z,60.9
2022-12-15T04:02:03.630Z,61
2022-12-15T04:04:03.485Z,61.1
2022-12-15T04:06:04.906Z,61.1
2022-12-15T04:08:03.382Z,61.2
2022-12-15T04:10:08.017Z,61.1
2022-12-15T04:12:03.417Z,61.2
2022-12-15T04:14:04.647Z,61.2
2022-12-15T04:16:03.412Z,61.2
2022-12-15T04:18:29.616Z,61.3
2022-12-15T04:20:08.733Z,61.3
2022-12-15T04:22:03.339Z,61.5
2022-12-15T04:24:04.726Z,61.6
2022-12-15T04:26:03.413Z,61.7
2022-12-15T04:28:07.841Z,61.8
2022-12-15T04:30:04.814Z,61.9
2022-12-15T04:32:03.345Z,62
2022-12-15T04:34:04.727Z,62
2022-12-15T04:36:03.374Z,62
2022-12-15T04:38:03.359Z,62.1
2022-12-15T04:40:03.330Z,62.1
2022-12-15T04:42:03.340Z,62.2
2022-12-15T04:44:03.295Z,62.3
2022-12-15T04:46:03.338Z,62.4
2022-12-15T04:48:32.627Z,62.5
2022-12-15T04:50:07.419Z,62.5
2022-12-15T04:52:03.299Z,62.6
2022-12-15T04:54:03.392Z,62.6
2022-12-15T04:56:03.347Z,62.6
2022-12-15T04:58:05.440Z,62.7
2022-12-15T05:00:03.325Z,62.7
2022-12-15T05:02:03.542Z,62.8
2022-12-15T05:04:03.447Z,62.8
2022-12-15T05:06:03.306Z,62.9
2022-12-15T05:08:03.321Z,63
2022-12-15T05:10:03.708Z,63.1
2022-12-15T05:12:04.971Z,63.2
2022-12-15T05:14:03.294Z,63.2
2022-12-15T05:16:03.347Z,63.2
2022-12-15T05:18:03.291Z,63.3
2022-12-15T05:20:04.688Z,63.3
2022-12-15T05:22:13.826Z,63.4
2022-12-15T05:24:03.346Z,63.4
2022-12-15T05:26:04.654Z,63.4
2022-12-15T05:28:06.745Z,63.5
2022-12-15T05:30:03.395Z,63.5
2022-12-15T05:32:03.238Z,63.6
2022-12-15T05:34:05.637Z,63.6
2022-12-15T05:36:07.814Z,63.7
2022-12-15T05:38:04.532Z,63.7
2022-12-15T05:40:03.269Z,63.8
2022-12-15T05:42:03.291Z,63.8
2022-12-15T05:44:04.399Z,63.9
2022-12-15T05:46:05.902Z,63.9
2022-12-15T05:48:14.010Z,64
2022-12-15T05:50:04.583Z,64
2022-12-15T05:52:03.237Z,64.1
2022-12-15T05:54:03.253Z,64.1
2022-12-15T05:56:03.237Z,64.1
2022-12-15T05:58:03.251Z,64.2
2022-12-15T06:00:03.255Z,64.2
2022-12-15T06:02:04.495Z,64.3
2022-12-15T06:04:03.253Z,64.3
2022-12-15T06:06:03.323Z,64.4
2022-12-15T06:08:03.298Z,64.4
2022-12-15T06:10:04.585Z,64.5
2022-12-15T06:12:03.356Z,64.5
2022-12-15T06:14:03.249Z,64.6
2022-12-15T06:16:03.209Z,64.6
2022-12-15T06:18:03.203Z,64.7
2022-12-15T06:20:03.221Z,64.7
2022-12-15T06:22:03.146Z,64.8
2022-12-15T06:24:05.185Z,64.8
2022-12-15T06:26:03.181Z,64.9
2022-12-15T06:28:03.194Z,64.9
2022-12-15T06:30:03.351Z,65
2022-12-15T06:32:32.817Z,65
2022-12-15T06:34:29.695Z,65
2022-12-15T06:36:04.207Z,65
2022-12-15T06:38:03.225Z,65
2022-12-15T06:40:03.247Z,65.1
2022-12-15T06:42:03.185Z,65.1
2022-12-15T06:44:03.258Z,65.1
2022-12-15T06:46:04.324Z,65.1
2022-12-15T06:48:03.175Z,65.1
2022-12-15T06:50:04.554Z,65.1
2022-12-15T06:52:04.452Z,65.2
2022-12-15T06:54:03.338Z,65.2
2022-12-15T06:56:03.262Z,65.3
2022-12-15T06:58:03.212Z,65.3
2022-12-15T07:00:03.150Z,65.3
2022-12-15T07:02:03.361Z,65.4
2022-12-15T07:04:03.544Z,65.5
2022-12-15T07:06:03.267Z,65.5
2022-12-15T07:08:07.431Z,65.5
2022-12-15T07:10:04.243Z,65.6
2022-12-15T07:10:29.595Z,65.6
2022-12-15T07:12:03.197Z,65.6
2022-12-15T07:14:04.499Z,65.6
2022-12-15T07:16:03.294Z,65.8
2022-12-15T07:18:04.503Z,65.7
2022-12-15T07:20:03.125Z,65.7
2022-12-15T07:22:03.128Z,65.8
2022-12-15T07:24:03.663Z,65.9
2022-12-15T07:26:11.375Z,65.9
2022-12-15T07:28:03.105Z,66
2022-12-15T07:30:03.146Z,66
2022-12-15T07:32:03.239Z,66.2
2022-12-15T07:34:03.122Z,66.2
2022-12-15T07:36:03.125Z,66.2
2022-12-15T07:38:03.115Z,66.3
2022-12-15T07:40:03.089Z,66.3
2022-12-15T07:42:05.816Z,66.3
2022-12-15T07:44:03.175Z,66.5
2022-12-15T07:46:03.284Z,66.5
2022-12-15T07:48:03.162Z,66.5
2022-12-15T07:50:03.177Z,66.5
2022-12-15T07:52:03.084Z,66.5
2022-12-15T07:54:04.179Z,66.5
2022-12-15T07:56:07.750Z,66.6
2022-12-15T07:58:03.079Z,66.6
2022-12-15T08:00:04.581Z,66.5
2022-12-15T08:02:03.326Z,66.6
2022-12-15T08:04:13.558Z,66.6
2022-12-15T08:06:04.573Z,66.7
2022-12-15T08:08:07.523Z,66.8
2022-12-15T08:10:03.089Z,66.7
2022-12-15T08:12:03.654Z,66.7
2022-12-15T08:14:04.921Z,66.7
2022-12-15T08:16:03.091Z,66.7
2022-12-15T08:18:03.488Z,66.8
2022-12-15T08:20:08.065Z,66.9
2022-12-15T08:22:03.075Z,67
2022-12-15T08:24:04.169Z,67.2
2022-12-15T08:26:03.034Z,67.4
2022-12-15T08:28:03.029Z,67.3
2022-12-15T08:30:03.056Z,67.3
2022-12-15T08:32:03.167Z,67.6
2022-12-15T08:34:02.977Z,67.4
2022-12-15T08:36:03.041Z,67.4
2022-12-15T08:38:05.555Z,67.3
2022-12-15T08:40:03.043Z,67.4
2022-12-15T08:42:03.043Z,67.5
2022-12-15T08:44:03.061Z,67.5
2022-12-15T08:46:03.004Z,67.5
2022-12-15T08:48:03.029Z,67.6
2022-12-15T08:50:04.171Z,67.6
2022-12-15T08:52:04.025Z,67.7
2022-12-15T08:54:03.123Z,67.7
2022-12-15T08:56:03.011Z,69.3
2022-12-15T08:58:02.999Z,68.9
2022-12-15T09:00:03.019Z,68.3
2022-12-15T09:02:03.180Z,68.1
2022-12-15T09:04:03.048Z,68.1
2022-12-15T09:06:02.964Z,68.1
2022-12-15T09:08:06.483Z,68.9
2022-12-15T09:10:02.942Z,68.4
2022-12-15T09:12:02.988Z,68.5
2022-12-15T09:14:02.959Z,68.2
2022-12-15T09:16:10.854Z,68.2
2022-12-15T09:18:07.094Z,68.4
2022-12-15T09:20:03.311Z,68.4
2022-12-15T09:22:02.976Z,68.5
2022-12-15T09:24:03.045Z,68.5
2022-12-15T09:26:07.488Z,68.5
2022-12-15T09:28:02.938Z,68.5
2022-12-15T09:30:03.021Z,68.6
2022-12-15T09:32:02.949Z,68.7
2022-12-15T09:34:02.970Z,68.8
2022-12-15T09:36:03.008Z,68.8
2022-12-15T09:38:02.960Z,68.8
2022-12-15T09:40:02.948Z,68.9
2022-12-15T09:42:02.972Z,69
2022-12-15T09:44:02.977Z,68.9
2022-12-15T09:46:02.976Z,69
2022-12-15T09:48:05.086Z,69.1
2022-12-15T09:50:03.988Z,69.2
2022-12-15T09:52:07.313Z,69.2
2022-12-15T09:54:04.839Z,69.9
2022-12-15T09:56:02.943Z,70
2022-12-15T09:58:10.758Z,69.5
2022-12-15T10:00:02.919Z,69.5
2022-12-15T10:02:03.118Z,69.7
2022-12-15T10:04:02.986Z,69.8
2022-12-15T10:06:15.870Z,69.8
2022-12-15T10:08:02.905Z,69.9
2022-12-15T10:10:02.917Z,69.9
2022-12-15T10:12:02.950Z,69.9
2022-12-15T10:14:02.940Z,70.1
2022-12-15T10:16:02.939Z,69.9
2022-12-15T10:18:02.959Z,70
2022-12-15T10:20:02.879Z,70
2022-12-15T10:22:02.916Z,70.1
2022-12-15T10:24:02.958Z,70.1
2022-12-15T10:26:02.911Z,70.2
2022-12-15T10:28:02.904Z,70.2
2022-12-15T10:30:03.145Z,70.3
2022-12-15T10:32:04.130Z,70.3
2022-12-15T10:34:02.855Z,70.6
2022-12-15T10:36:02.873Z,70.5
2022-12-15T10:38:04.407Z,70.6
2022-12-15T10:40:02.890Z,70.7
2022-12-15T10:42:02.994Z,71.6
2022-12-15T10:44:02.873Z,71.1
2022-12-15T10:46:02.883Z,71.3
2022-12-15T10:48:13.078Z,72.1
2022-12-15T10:50:02.883Z,71.1
2022-12-15T10:52:02.863Z,71
2022-12-15T10:54:05.600Z,71.3
2022-12-15T10:56:02.940Z,71.7
2022-12-15T10:58:05.436Z,71
2022-12-15T11:00:07.335Z,71.1
2022-12-15T11:00:51.030Z,71.1
2022-12-15T11:02:23.333Z,71.2
2022-12-15T11:04:03.216Z,71.1
2022-12-15T11:06:03.504Z,71.2
2022-12-15T11:08:04.840Z,71.2
2022-12-15T11:10:02.946Z,71.4
2022-12-15T11:12:04.128Z,71.8
2022-12-15T11:14:02.864Z,72.2
2022-12-15T11:16:02.851Z,71.8
2022-12-15T11:18:02.888Z,71.9
2022-12-15T11:20:03.399Z,71.6
2022-12-15T11:22:07.330Z,73.5
2022-12-15T11:24:02.864Z,72.8
2022-12-15T11:26:06.606Z,72.5
2022-12-15T11:28:02.806Z,72.4
2022-12-15T11:30:02.902Z,73
2022-12-15T11:32:06.862Z,76.8
2022-12-15T11:34:02.877Z,76.7
2022-12-15T11:36:03.371Z,77
2022-12-15T11:38:02.770Z,78.8
2022-12-15T11:40:02.820Z,77
2022-12-15T11:42:02.871Z,76
2022-12-15T11:44:06.412Z,76.5
2022-12-15T11:46:02.792Z,76.3
2022-12-15T11:48:03.083Z,75.3
2022-12-15T11:50:02.790Z,74.7
2022-12-15T11:52:02.779Z,75.1
2022-12-15T11:54:03.182Z,75.7
2022-12-15T11:56:02.767Z,77.5
2022-12-15T11:58:03.592Z,78.3
2022-12-15T12:00:07.329Z,77
2022-12-15T12:00:29.637Z,77
2022-12-15T12:02:03.611Z,77.8
2022-12-15T12:04:04.850Z,77.8
2022-12-15T12:06:03.887Z,76.1
2022-12-15T12:08:03.980Z,76.3
2022-12-15T12:10:04.277Z,75.5
2022-12-15T12:12:06.119Z,78.6
2022-12-15T12:14:26.955Z,77.5
2022-12-15T12:16:04.100Z,78.4
2022-12-15T12:18:02.882Z,76.6
2022-12-15T12:20:11.192Z,75.9
2022-12-15T12:20:32.969Z,75.9
2022-12-15T12:22:04.107Z,75.8
2022-12-15T12:24:02.843Z,75.3
2022-12-15T12:26:03.617Z,76.3
2022-12-15T12:26:41.597Z,76.3
2022-12-15T12:28:02.892Z,75.5
2022-12-15T12:30:02.899Z,75
2022-12-15T12:32:08.548Z,76.5
2022-12-15T12:34:08.340Z,77.6
2022-12-15T12:36:03.982Z,76.8
2022-12-15T12:38:05.633Z,77.6
2022-12-15T12:40:03.975Z,76.3
2022-12-15T12:42:02.878Z,76.5
2022-12-15T12:44:03.819Z,75.6
2022-12-15T12:46:04.160Z,75.8
2022-12-15T12:48:04.505Z,75.7
2022-12-15T12:50:02.710Z,76.1
2022-12-15T12:52:04.009Z,75.1
2022-12-15T12:54:05.306Z,75.6
2022-12-15T12:56:02.739Z,75.5
2022-12-15T12:58:02.727Z,78.1
2022-12-15T13:00:29.965Z,78.6
2022-12-15T13:02:07.506Z,77.1
2022-12-15T13:04:05.443Z,77.7
2022-12-15T13:06:02.828Z,77.3
2022-12-15T13:08:02.729Z,78.7
2022-12-15T13:10:02.753Z,77.2
2022-12-15T13:12:21.080Z,76.9
2022-12-15T13:14:02.683Z,76.5
2022-12-15T13:16:02.678Z,79.2
2022-12-15T13:18:03.010Z,78.8
2022-12-15T13:20:02.667Z,80.4
2022-12-15T13:22:02.699Z,80.9
2022-12-15T13:24:02.738Z,80.9
2022-12-15T13:26:41.221Z,80.9
2022-12-15T13:28:08.527Z,81.5
2022-12-15T13:30:32.626Z,81.9
2022-12-15T13:33:32.938Z,80.9
2022-12-15T13:34:23.286Z,82.5
2022-12-15T13:39:10.913Z,83.3
2022-12-15T13:40:05.884Z,82.9
2022-12-15T13:42:33.767Z,83.6
2022-12-15T13:44:05.762Z,83.6
2022-12-15T13:46:05.861Z,83.1
2022-12-15T13:48:05.826Z,84.1
2022-12-15T13:50:05.776Z,84
2022-12-15T13:52:05.799Z,84.2
2022-12-15T13:54:05.910Z,84.7
2022-12-15T13:56:06.905Z,84.3
2022-12-15T13:58:05.765Z,84.2
2022-12-15T14:00:05.815Z,83.9
2022-12-15T14:02:07.133Z,83.7
2022-12-15T14:04:05.726Z,83.7
2022-12-15T14:06:07.190Z,83.6
2022-12-15T14:08:07.146Z,83.5
2022-12-15T14:10:07.221Z,82.5
2022-12-15T14:12:05.803Z,84.1
2022-12-15T14:14:05.721Z,84.5
2022-12-15T14:16:05.747Z,84.4
2022-12-15T14:18:10.136Z,84.5
2022-12-15T14:20:05.701Z,84.1
2022-12-15T14:22:05.775Z,84.6
2022-12-15T14:24:37.297Z,84.8
2022-12-15T14:26:05.848Z,85.1
2022-12-15T14:28:12.150Z,85.5
2022-12-15T14:30:06.157Z,85.5
2022-12-15T14:32:07.187Z,85.2
2022-12-15T14:34:06.929Z,84.2
2022-12-15T14:36:07.202Z,84.4
2022-12-15T14:38:09.040Z,84.2
2022-12-15T14:40:05.674Z,84.9
2022-12-15T14:42:05.811Z,84.7
2022-12-15T14:44:31.049Z,85.7
2022-12-15T14:46:07.211Z,85.5
2022-12-15T14:48:39.318Z,84.9
2022-12-15T14:50:05.734Z,85.4
2022-12-15T14:52:05.745Z,84.6
2022-12-15T14:54:41.560Z,84.7
2022-12-15T14:56:07.083Z,85.2
2022-12-15T14:58:07.166Z,84.6
2022-12-15T15:00:07.011Z,85.2
2022-12-15T15:02:07.392Z,85
2022-12-15T15:04:29.840Z,85.1
2022-12-15T15:06:07.120Z,84.9
2022-12-15T15:08:11.460Z,84.8
2022-12-15T15:10:06.988Z,85.1
2022-12-15T15:12:05.650Z,84.4
2022-12-15T15:14:05.617Z,84.7
2022-12-15T15:16:06.909Z,85.1
2022-12-15T15:18:06.836Z,84.8
2022-12-15T15:20:05.808Z,84.7
2022-12-15T15:22:05.671Z,84
2022-12-15T15:24:05.688Z,84.2
2022-12-15T15:26:05.622Z,84.6
2022-12-15T15:28:05.650Z,84.4
2022-12-15T15:30:10.187Z,84.9
2022-12-15T15:32:05.701Z,85
2022-12-15T15:34:05.751Z,84.5
2022-12-15T15:36:09.892Z,84.8
2022-12-15T15:38:05.691Z,85.2
2022-12-15T15:40:07.102Z,85.1
2022-12-15T15:42:05.691Z,84.9
2022-12-15T15:44:05.589Z,85.4
2022-12-15T15:46:05.685Z,85
2022-12-15T15:48:07.332Z,85.3
2022-12-15T15:50:23.414Z,85.6
2022-12-15T15:52:07.118Z,85.8
2022-12-15T15:54:07.006Z,85.8
2022-12-15T15:56:05.598Z,85.1
2022-12-15T15:58:05.570Z,85.1
2022-12-15T16:00:05.628Z,84.9
2022-12-15T16:02:05.927Z,84.3
2022-12-15T16:04:05.815Z,84.6
2022-12-15T16:06:05.645Z,84.5
2022-12-15T16:08:05.689Z,84.3
2022-12-15T16:10:05.689Z,85.6
2022-12-15T16:12:05.574Z,85.2
2022-12-15T16:14:07.081Z,85.4
2022-12-15T16:16:06.771Z,85
2022-12-15T16:18:05.850Z,85.4
2022-12-15T16:20:07.625Z,85.3
2022-12-15T16:22:07.372Z,85.7
2022-12-15T16:24:05.639Z,85.7
2022-12-15T16:26:05.674Z,86.1
2022-12-15T16:28:05.527Z,85.7
2022-12-15T16:30:05.646Z,85.8
2022-12-15T16:32:05.588Z,85.3
2022-12-15T16:34:05.571Z,84.9
2022-12-15T16:36:05.580Z,85.2
2022-12-15T16:38:05.605Z,85.5
2022-12-15T16:40:06.668Z,86.1
2022-12-15T16:42:06.869Z,85.5
2022-12-15T16:44:05.574Z,86.1
2022-12-15T16:46:06.790Z,85.8
2022-12-15T16:48:05.655Z,86.3
2022-12-15T16:50:06.909Z,86.4
2022-12-15T16:52:05.514Z,85.9
2022-12-15T16:54:05.589Z,86.2
2022-12-15T16:56:05.677Z,86.2
2022-12-15T16:58:05.513Z,86.3
2022-12-15T17:00:05.539Z,86.5
2022-12-15T17:02:05.552Z,86.3
2022-12-15T17:04:05.530Z,87
2022-12-15T17:06:05.739Z,87.1
2022-12-15T17:08:06.913Z,86.8
2022-12-15T17:10:06.679Z,86.6
2022-12-15T17:12:05.605Z,86.4
2022-12-15T17:14:05.583Z,86.6
2022-12-15T17:16:06.624Z,86.5
2022-12-15T17:18:05.515Z,87.2
2022-12-15T17:20:28.352Z,87.5
2022-12-15T17:22:05.481Z,87.7
2022-12-15T17:24:05.547Z,87.5
2022-12-15T17:26:27.906Z,87.3
2022-12-15T17:28:05.477Z,86.7
2022-12-15T17:30:05.480Z,86.3
2022-12-15T17:32:05.492Z,85.8
2022-12-15T17:34:05.431Z,85.8
2022-12-15T17:36:06.039Z,85.4
2022-12-15T17:38:06.558Z,85.1
2022-12-15T17:40:05.468Z,84.8
2022-12-15T17:42:05.567Z,84.4
2022-12-15T17:44:31.489Z,84.6
2022-12-15T17:46:05.598Z,84.8
2022-12-15T17:48:05.557Z,85.3
2022-12-15T17:50:07.999Z,86
2022-12-15T17:52:06.574Z,85.9
2022-12-15T17:54:06.038Z,85.8
2022-12-15T17:56:05.536Z,85.2
2022-12-15T17:58:05.438Z,85.3
2022-12-15T18:00:17.558Z,85.8
2022-12-15T18:02:05.662Z,85.7
2022-12-15T18:04:28.147Z,85.7
2022-12-15T18:06:05.503Z,86.1
2022-12-15T18:08:05.439Z,86.4
2022-12-15T18:10:05.467Z,86.2
2022-12-15T18:12:05.424Z,86.1
2022-12-15T18:14:23.986Z,86.1
2022-12-15T18:16:06.789Z,85.7
2022-12-15T18:18:05.522Z,85.7
2022-12-15T18:20:06.640Z,86.3
2022-12-15T18:22:05.484Z,85.8
2022-12-15T18:24:05.545Z,86
2022-12-15T18:26:05.384Z,85.7
2022-12-15T18:28:05.410Z,85.9
2022-12-15T18:30:05.518Z,85.7
2022-12-15T18:32:06.148Z,85.8
2022-12-15T18:34:05.459Z,85.8
2022-12-15T18:36:05.463Z,85.7
2022-12-15T18:38:05.384Z,86.1
2022-12-15T18:40:08.719Z,85.9
2022-12-15T18:42:05.455Z,85.1
2022-12-15T18:44:06.807Z,85.7
2022-12-15T18:46:05.428Z,86
2022-12-15T18:48:05.470Z,86.3
2022-12-15T18:50:05.458Z,86.3
2022-12-15T18:52:05.425Z,85.9
2022-12-15T18:54:05.438Z,86.8
2022-12-15T18:56:05.358Z,87.1
2022-12-15T18:58:09.285Z,86.5
2022-12-15T19:00:05.364Z,86.5
2022-12-15T19:02:05.447Z,86.2
2022-12-15T19:04:05.313Z,86
2022-12-15T19:06:05.466Z,85.9
2022-12-15T19:08:07.244Z,85.7
2022-12-15T19:10:05.335Z,86.6
2022-12-15T19:12:05.349Z,86.2
2022-12-15T19:14:29.122Z,86
2022-12-15T19:16:05.487Z,85.8
2022-12-15T19:18:05.718Z,85.7
2022-12-15T19:19:23.610Z,85.7
2022-12-15T19:20:05.353Z,86.3
2022-12-15T19:22:05.439Z,86.1
2022-12-15T19:24:08.659Z,86.2
2022-12-15T19:26:05.392Z,86.5
2022-12-15T19:28:13.070Z,86
2022-12-15T19:30:05.491Z,86.7
2022-12-15T19:32:06.806Z,86.7
2022-12-15T19:34:06.684Z,87.2
2022-12-15T19:36:05.420Z,87.2
2022-12-15T19:38:05.375Z,86.9
2022-12-15T19:40:05.293Z,87
2022-12-15T19:42:10.150Z,87
2022-12-15T19:44:05.344Z,86.7
2022-12-15T19:46:05.429Z,87
2022-12-15T19:48:05.535Z,86.8
2022-12-15T19:50:05.305Z,87
2022-12-15T19:52:05.372Z,86.2
2022-12-15T19:54:05.927Z,85.8
2022-12-15T19:56:05.327Z,86.4
2022-12-15T19:58:05.339Z,86.3
2022-12-15T20:00:05.336Z,86.2
2022-12-15T20:02:05.424Z,86.5
2022-12-15T20:04:05.296Z,86.8
2022-12-15T20:06:05.418Z,86.6
2022-12-15T20:08:05.304Z,86
2022-12-15T20:10:05.282Z,85.8
2022-12-15T20:12:11.052Z,85.4
2022-12-15T20:14:05.293Z,85.6
2022-12-15T20:16:09.627Z,85.6
2022-12-15T20:18:05.269Z,85.7
2022-12-15T20:20:05.331Z,85.5
2022-12-15T20:22:05.291Z,85.2
2022-12-15T20:24:05.352Z,85.3
2022-12-15T20:26:05.282Z,85.7
2022-12-15T20:28:06.373Z,86.2
2022-12-15T20:30:05.248Z,86.5
2022-12-15T20:32:06.742Z,85.9
2022-12-15T20:34:05.278Z,85.8
2022-12-15T20:36:06.690Z,86.1
2022-12-15T20:38:05.216Z,86.4
2022-12-15T20:40:05.227Z,86.5
2022-12-15T20:42:05.339Z,86.8
2022-12-15T20:44:05.258Z,86.9
2022-12-15T20:46:05.302Z,87.3
2022-12-15T20:48:05.222Z,87.5
2022-12-15T20:50:05.326Z,87.2
2022-12-15T20:52:05.209Z,87.1
2022-12-15T20:54:05.280Z,87.3
2022-12-15T20:56:06.751Z,87.1
2022-12-15T20:58:05.294Z,87.2
2022-12-15T21:00:06.551Z,87.3
2022-12-15T21:02:05.352Z,86.6
2022-12-15T21:04:06.538Z,86.5
2022-12-15T21:06:05.371Z,86.3
2022-12-15T21:08:05.352Z,86.3
2022-12-15T21:10:09.375Z,86.4
2022-12-15T21:12:09.084Z,85.7
2022-12-15T21:14:10.266Z,86.5
2022-12-15T21:16:05.176Z,86.6
2022-12-15T21:18:40.535Z,87.1
2022-12-15T21:20:05.221Z,86.8
2022-12-15T21:22:09.346Z,86
2022-12-15T21:24:05.278Z,86.1
2022-12-15T21:26:06.553Z,86.9
2022-12-15T21:28:05.208Z,87.5
2022-12-15T21:30:06.430Z,87
2022-12-15T21:32:05.274Z,86.5
2022-12-15T21:34:05.186Z,86.5
2022-12-15T21:36:09.450Z,86.6
2022-12-15T21:38:05.227Z,86.3
2022-12-15T21:40:05.255Z,86.4
2022-12-15T21:42:05.161Z,86.1
2022-12-15T21:44:23.732Z,85.7
2022-12-15T21:46:09.568Z,85.8
2022-12-15T21:48:06.508Z,86.3
2022-12-15T21:50:06.646Z,86.2
2022-12-15T21:52:06.350Z,85.5
2022-12-15T21:54:05.206Z,85.4
2022-12-15T21:56:10.760Z,85.2
2022-12-15T21:58:25.592Z,84.9
2022-12-15T22:00:05.199Z,85.2
2022-12-15T22:02:08.382Z,84.6
2022-12-15T22:04:08.736Z,84.7
2022-12-15T22:06:07.726Z,84.3
2022-12-15T22:08:05.309Z,84.2
2022-12-15T22:10:05.187Z,84.6
2022-12-15T22:12:05.147Z,84.1
2022-12-15T22:14:06.432Z,84.7
2022-12-15T22:16:05.422Z,85
2022-12-15T22:18:05.188Z,85.1
2022-12-15T22:20:05.126Z,84.9
2022-12-15T22:22:05.156Z,84.3
2022-12-15T22:24:05.146Z,84.5
2022-12-15T22:26:05.125Z,84.5
2022-12-15T22:28:05.079Z,84.6
2022-12-15T22:30:05.100Z,84.9
2022-12-15T22:32:05.141Z,84.7
2022-12-15T22:34:06.642Z,84.7
2022-12-15T22:36:05.991Z,84.5
2022-12-15T22:38:05.097Z,84.7
2022-12-15T22:40:05.106Z,84.4
2022-12-15T22:42:06.444Z,84.1
2022-12-15T22:44:05.106Z,84.3
2022-12-15T22:46:05.149Z,84.4
2022-12-15T22:48:05.081Z,84.1
2022-12-15T22:50:05.059Z,84.2
2022-12-15T22:52:05.106Z,84.1
2022-12-15T22:54:05.137Z,84.2
2022-12-15T22:56:05.040Z,84.2
2022-12-15T22:58:05.136Z,84.2
2022-12-15T23:00:05.064Z,84.2
2022-12-15T23:02:05.186Z,83.8
2022-12-15T23:04:05.044Z,83.9
2022-12-15T23:06:05.105Z,84
2022-12-15T23:08:05.081Z,84
2022-12-15T23:10:05.058Z,84.1
2022-12-15T23:12:05.511Z,83.7
2022-12-15T23:14:05.038Z,84.1
2022-12-15T23:16:05.106Z,84.2
2022-12-15T23:18:05.242Z,84.4
2022-12-15T23:20:07.076Z,84.6
2022-12-15T23:22:05.031Z,84.1
2022-12-15T23:24:05.069Z,84.3
2022-12-15T23:26:11.087Z,84.3
2022-12-15T23:28:05.062Z,84
2022-12-15T23:30:05.118Z,84.1
2022-12-15T23:32:05.078Z,83.7
2022-12-15T23:34:05.023Z,83.9
2022-12-15T23:36:05.035Z,83.8
2022-12-15T23:38:05.041Z,84.6
2022-12-15T23:40:05.066Z,84.4
2022-12-15T23:42:05.390Z,83.8
2022-12-15T23:44:05.023Z,83.7
2022-12-15T23:46:05.096Z,83.9
2022-12-15T23:48:05.422Z,83.8
2022-12-15T23:50:07.886Z,83.4
2022-12-15T23:52:05.022Z,83.1
2022-12-15T23:54:27.727Z,83.1
2022-12-15T23:56:05.032Z,85.7
2022-12-15T23:58:05.016Z,84.8
